• Join FlightAware (Why Join?)
  • Login
  • US Flag 
01:30AM EDT


 

Airport Tracker/Info


-or-


 

Live Flight TrackerFlight Track Log ✈ N451DS ✈ 05-Jun-2013 ✈ KEQY - KEQY

Flight Track Log - Related Links

Times and Time Zones

All times are in EDT time to prevent confusion due to time zone crossing. See the N451DS flight status page for this flight to view local times or setup timezone preferences in your user account.

Time Position Orientation Groundspeed Altitude Reporting Facility
EDT Latitude Longitude Course Direction KTS MPH feet Rate Location/Type
11:50AM 35.0197 -80.6225 135° Southeast 74 85 1,100  Level Atlanta Center
11:51AM 35.0258 -80.6147 46° Northeast 71 82 1,400 660 Climbing Atlanta Center
11:52AM 35.0231 -80.5919 98° East 93 107 2,000 540 Climbing Atlanta Center
11:53AM 35.0014 -80.5675 137° Southeast 107 123 2,500 480 Climbing Atlanta Center
11:54AM 34.9781 -80.5483 146° Southeast 104 120 3,000 480 Climbing Atlanta Center
11:55AM 34.9544 -80.5239 140° Southeast 104 120 3,600 480 Climbing Atlanta Center
11:56AM 35.0174 -80.6220 135° Southeast  Level Estimated
11:56AM 34.9306 -80.4944 135° Southeast 110 127 4,100  Level Atlanta Center
11:57AM 34.9069 -80.4700 140° Southeast 112 129 4,600 480 Climbing Atlanta Center
11:58AM 34.8875 -80.4506 141° Southeast 109 125 5,100 180 Climbing Atlanta Center
11:59AM 34.8572 -80.4167 137° Southeast 128 147 5,000 -60 Descending Atlanta Center
12:00PM 34.8294 -80.3900 142° Southeast 136 157 5,000  Level Atlanta Center
12:01PM 34.8036 -80.3608 137° Southeast 133 153 5,100  Climbing Atlanta Center
12:02PM 34.7733 -80.3317 142° Southeast 131 151 5,100  Level Atlanta Center
12:03PM 34.7414 -80.3028 143° Southeast 130 150 5,100  Level Atlanta Center
12:05PM 34.7861 -80.3500 319° Northwest  Level FlightAware Approximate
12:12PM 34.9790 -80.5619 318° Northwest  Level FlightAware Approximate
12:13PM 35.0030 -80.5961 309° West  Level FlightAware Approximate
12:14PM 35.0167 -80.6167 309° West  Level FlightAware Approximate
12:15PM 35.0174 -80.6220 309° West  Level Estimated
12:16PM 35.0167 -80.6167 309° West  Level FlightAware Approximate
12:17PM 35.0174 -80.6220 309° West  Level Estimated
12:18PM 35.0167 -80.6167 309° West  Level FlightAware Approximate
12:19PM 35.0174 -80.6220 309° West  Level Estimated
12:20PM 35.0167 -80.6167 309° West  Level FlightAware Approximate
12:21PM 35.0174 -80.6220 309° West  Level Estimated
12:22PM 35.0167 -80.6167 309° West  Level FlightAware Approximate
12:23PM 35.0174 -80.6220 309° West  Level Estimated
12:24PM 35.0167 -80.6167 309° West  Level FlightAware Approximate
12:25PM 35.0174 -80.6220 309° West  Level Estimated